Time;durP1;ratioP1;P1;durP2;ratioP2;P2;SDS_P1;SDS_P2;PMS_P1;PMS_P2;Temp;Humidity;BMP_temperature;BMP_pressure;BME280_temperature;BME280_humidity;BME280_pressure;Samples;Min_cycle;Max_cycle;Signal;HPM_P1;HPM_P2
2022/08/24 00:00:07;;;;;;;33.60;30.85;;;21.20;99.90;;;;;;5069777;28;20409;-84
2022/08/24 00:02:32;;;;;;;29.70;27.38;;;21.10;99.90;;;;;;5052745;28;20047;-84
2022/08/24 00:04:58;;;;;;;35.90;33.05;;;21.00;99.90;;;;;;5052319;28;20052;-85
2022/08/24 00:07:24;;;;;;;33.80;31.08;;;21.00;99.90;;;;;;5069857;28;20051;-85
2022/08/24 00:09:49;;;;;;;35.58;32.67;;;20.90;99.90;;;;;;5052222;28;20066;-84
2022/08/24 00:12:16;;;;;;;28.17;25.77;;;20.80;99.90;;;;;;5052662;28;20127;-84
2022/08/24 00:14:42;;;;;;;32.67;29.98;;;20.70;99.90;;;;;;5052299;28;20556;-84
2022/08/24 00:17:08;;;;;;;39.15;35.85;;;20.60;99.90;;;;;;5069272;28;20128;-84
2022/08/24 00:19:34;;;;;;;40.60;37.30;;;20.60;99.90;;;;;;5069296;28;20119;-84
2022/08/24 00:22:00;;;;;;;48.53;44.58;;;20.60;99.90;;;;;;5068463;28;20066;-84
2022/08/24 00:24:26;;;;;;;45.45;41.75;;;20.60;99.90;;;;;;5069506;28;20044;-84
2022/08/24 00:26:53;;;;;;;40.65;37.35;;;20.60;99.90;;;;;;5051893;28;20409;-84
2022/08/24 00:29:20;;;;;;;48.53;44.50;;;20.60;99.90;;;;;;5069275;28;20044;-85
2022/08/24 00:31:46;;;;;;;45.55;41.85;;;20.60;99.90;;;;;;5052269;28;20037;-84
2022/08/24 00:34:12;;;;;;;45.22;41.72;;;20.60;99.90;;;;;;5047181;28;20029;-84
2022/08/24 00:36:39;;;;;;;46.83;43.00;;;20.60;99.90;;;;;;5032295;28;20040;-85
2022/08/24 00:39:07;;;;;;;44.75;41.05;;;20.60;99.90;;;;;;5049791;28;20117;-85
2022/08/24 00:41:33;;;;;;;46.25;42.55;;;20.60;99.90;;;;;;5068659;28;20064;-85
2022/08/24 00:44:01;;;;;;;47.08;43.15;;;20.60;99.90;;;;;;5052733;28;20040;-85
2022/08/24 00:46:44;;;;;;;46.55;42.85;;;20.60;99.90;;;;;;5068375;28;20105;-84
2022/08/24 00:49:33;;;;;;;43.78;40.08;;;20.60;99.90;;;;;;5068815;28;20098;-84
2022/08/24 00:52:14;;;;;;;41.58;38.15;;;20.50;99.90;;;;;;5062566;28;20076;-84
2022/08/24 00:54:44;;;;;;;44.55;40.95;;;20.50;99.90;;;;;;5048877;28;20041;-84
2022/08/24 00:57:11;;;;;;;44.47;40.80;;;20.50;99.90;;;;;;5051157;28;20047;-84
2022/08/24 00:59:42;;;;;;;44.97;41.15;;;20.40;99.90;;;;;;5056428;28;20124;-84
2022/08/24 01:02:17;;;;;;;46.92;43.22;;;20.40;99.90;;;;;;5055778;28;20510;-84
2022/08/24 01:04:54;;;;;;;43.17;39.47;;;20.40;99.90;;;;;;5069186;28;20079;-84
2022/08/24 01:07:22;;;;;;;47.88;43.92;;;20.40;99.90;;;;;;5052498;28;20045;-84
2022/08/24 01:09:50;;;;;;;49.88;45.78;;;20.30;99.90;;;;;;5068375;28;20032;-84
2022/08/24 01:12:16;;;;;;;46.28;42.58;;;20.30;99.90;;;;;;5051198;28;20111;-84
2022/08/24 01:14:42;;;;;;;46.45;42.78;;;20.30;99.90;;;;;;5052501;28;20167;-84
2022/08/24 01:19:56;;;;;;;42.08;38.70;;;20.30;99.90;;;;;;5068370;28;20052;-84
2022/08/24 01:22:37;;;;;;;48.55;44.55;;;20.20;99.90;;;;;;5068088;28;20410;-84
2022/08/24 01:25:05;;;;;;;47.67;43.78;;;20.20;99.90;;;;;;5068351;28;20044;-84
2022/08/24 01:27:32;;;;;;;47.33;43.42;;;20.20;99.90;;;;;;5068656;28;20048;-84
2022/08/24 01:30:00;;;;;;;51.10;47.00;;;20.20;99.90;;;;;;5053888;28;20037;-84
2022/08/24 01:32:29;;;;;;;55.58;50.95;;;20.20;99.90;;;;;;5031901;28;20041;-84
2022/08/24 01:34:56;;;;;;;50.90;28.30;;;20.10;99.90;;;;;;5062624;28;20041;-84
2022/08/24 01:37:22;;;;;;;35.35;32.55;;;20.10;99.90;;;;;;5068486;28;20036;-84
2022/08/24 01:39:51;;;;;;;28.13;25.92;;;20.00;99.90;;;;;;5067605;28;20520;-84
2022/08/24 01:42:16;;;;;;;28.05;25.77;;;20.00;99.90;;;;;;5068351;28;20524;-84
2022/08/24 01:44:44;;;;;;;36.95;34.15;;;19.90;99.90;;;;;;5067969;28;20029;-84
2022/08/24 01:47:11;;;;;;;41.10;38.00;;;19.90;99.90;;;;;;5035770;28;20084;-84
2022/08/24 01:49:47;;;;;;;39.95;36.95;;;19.80;99.90;;;;;;5048016;28;20076;-84
2022/08/24 01:52:16;;;;;;;42.40;39.10;;;19.80;99.90;;;;;;5056252;28;20491;-84
2022/08/24 01:54:42;;;;;;;47.40;43.72;;;19.80;99.90;;;;;;5048812;28;20037;-84
2022/08/24 01:57:08;;;;;;;49.42;45.50;;;19.70;99.90;;;;;;5040176;28;20429;-84
2022/08/24 01:59:34;;;;;;;42.03;38.67;;;19.70;99.90;;;;;;5068123;28;20544;-84
2022/08/24 02:02:27;;;;;;;42.10;38.88;;;19.70;99.90;;;;;;5069086;28;20040;-84
2022/08/24 02:04:53;;;;;;;64.57;32.58;;;19.70;99.90;;;;;;5068366;28;20521;-84
2022/08/24 02:07:19;;;;;;;108.30;32.58;;;19.60;99.90;;;;;;5072127;28;20505;-84
2022/08/24 02:09:45;;;;;;;118.85;29.63;;;19.60;99.90;;;;;;5057823;28;20037;-84
2022/08/24 02:12:12;;;;;;;341.10;47.75;;;19.50;99.90;;;;;;5051465;28;20128;-84
2022/08/24 02:14:38;;;;;;;360.30;46.33;;;19.40;99.90;;;;;;5054169;28;20041;-84
2022/08/24 02:17:06;;;;;;;279.63;37.92;;;19.30;99.90;;;;;;5054658;28;20511;-84
2022/08/24 02:19:32;;;;;;;152.85;30.27;;;19.10;99.90;;;;;;5054378;28;20067;-84
2022/08/24 02:21:59;;;;;;;28.27;25.58;;;19.00;99.90;;;;;;5053956;28;20041;-84
2022/08/24 02:24:25;;;;;;;29.55;27.25;;;18.90;99.90;;;;;;5072056;28;20044;-84
2022/08/24 02:26:51;;;;;;;28.05;25.85;;;18.80;99.90;;;;;;5070714;28;20484;-84
2022/08/24 02:29:16;;;;;;;28.27;25.98;;;18.80;99.90;;;;;;5035398;28;20041;-84
2022/08/24 02:31:42;;;;;;;26.25;24.15;;;18.70;99.90;;;;;;5050989;28;20090;-84
2022/08/24 02:34:08;;;;;;;21.20;19.50;;;18.60;99.90;;;;;;5059442;28;20123;-84
2022/08/24 02:36:34;;;;;;;17.77;16.27;;;18.60;99.90;;;;;;5051235;28;20079;-84
2022/08/24 02:38:59;;;;;;;21.75;19.95;;;18.50;99.90;;;;;;5060745;28;20079;-84
2022/08/24 02:41:25;;;;;;;20.35;18.60;;;18.50;99.90;;;;;;5071076;28;20040;-84
2022/08/24 02:43:53;;;;;;;29.13;26.63;;;18.50;99.90;;;;;;5054815;28;20028;-84
2022/08/24 02:46:21;;;;;;;27.45;25.25;;;18.50;99.90;;;;;;5063945;28;20406;-84
2022/08/24 02:48:47;;;;;;;20.08;18.30;;;18.60;99.90;;;;;;5034572;28;20057;-84
2022/08/24 02:51:25;;;;;;;19.50;17.88;;;18.50;99.90;;;;;;5058375;28;20068;-84
2022/08/24 02:53:51;;;;;;;18.80;17.20;;;18.50;99.90;;;;;;5070877;28;20127;-84
2022/08/24 02:56:17;;;;;;;21.35;19.55;;;18.50;99.90;;;;;;5053636;28;20032;-84
2022/08/24 02:58:44;;;;;;;23.70;21.70;;;18.50;99.90;;;;;;5052572;28;20094;-84
2022/08/24 03:01:11;;;;;;;26.33;24.13;;;18.50;99.90;;;;;;5051583;28;20041;-84
2022/08/24 03:03:37;;;;;;;34.03;31.42;;;18.50;99.90;;;;;;5070856;28;20052;-84
2022/08/24 03:06:03;;;;;;;42.65;39.17;;;18.50;99.90;;;;;;5071297;28;20052;-84
2022/08/24 03:08:29;;;;;;;32.80;30.25;;;18.60;99.90;;;;;;5053748;28;20517;-84
2022/08/24 03:10:55;;;;;;;33.67;31.13;;;18.60;99.90;;;;;;5053133;28;20049;-84
2022/08/24 03:13:20;;;;;;;42.92;39.53;;;18.50;99.90;;;;;;5054183;28;20032;-84
2022/08/24 03:15:46;;;;;;;35.17;32.47;;;18.60;99.90;;;;;;5047599;28;20041;-84
2022/08/24 03:18:12;;;;;;;33.80;31.20;;;18.60;99.90;;;;;;5033936;28;20494;-84
2022/08/24 03:20:38;;;;;;;36.75;33.95;;;18.60;99.90;;;;;;5050811;28;20044;-84
2022/08/24 03:23:04;;;;;;;37.20;34.30;;;18.60;99.90;;;;;;5053196;28;20041;-84
2022/08/24 03:25:30;;;;;;;36.40;33.60;;;18.60;99.90;;;;;;5053699;28;20033;-84
2022/08/24 03:27:55;;;;;;;43.90;40.40;;;18.60;99.90;;;;;;5069734;28;20038;-84
2022/08/24 03:30:22;;;;;;;50.17;46.17;;;18.50;99.90;;;;;;5070323;28;20037;-84
2022/08/24 03:32:49;;;;;;;39.63;36.42;;;18.50;99.90;;;;;;5069807;28;20493;-83
2022/08/24 03:35:15;;;;;;;32.35;29.85;;;18.50;99.90;;;;;;5054800;28;20040;-84
2022/08/24 03:37:41;;;;;;;29.42;27.02;;;18.50;99.90;;;;;;5033469;28;20048;-84
2022/08/24 03:40:10;;;;;;;28.77;26.35;;;18.50;99.90;;;;;;5055651;28;20059;-84
2022/08/24 03:42:36;;;;;;;33.10;30.50;;;18.40;99.90;;;;;;5052070;28;20041;-84
2022/08/24 03:45:02;;;;;;;32.20;29.70;;;18.40;99.90;;;;;;5033666;28;20044;-84
2022/08/24 03:47:28;;;;;;;33.30;30.73;;;18.40;99.90;;;;;;5042537;28;20048;-84
2022/08/24 03:49:55;;;;;;;38.53;35.53;;;18.40;99.90;;;;;;5069960;28;20127;-84
2022/08/24 03:52:21;;;;;;;35.35;32.65;;;18.40;99.90;;;;;;5068925;28;20107;-84
2022/08/24 03:54:46;;;;;;;30.85;28.58;;;18.40;99.90;;;;;;5053141;28;20143;-84
2022/08/24 03:57:13;;;;;;;35.35;32.55;;;18.40;99.90;;;;;;5035762;28;20569;-84
2022/08/24 03:59:39;;;;;;;23.17;21.00;;;18.40;99.90;;;;;;5063752;28;20044;-84
2022/08/24 04:02:04;;;;;;;25.20;23.20;;;18.30;99.90;;;;;;5049590;28;20521;-84
2022/08/24 04:04:30;;;;;;;24.73;22.92;;;18.20;99.90;;;;;;5038841;28;20439;-84
2022/08/24 04:06:56;;;;;;;25.08;23.17;;;18.20;99.90;;;;;;5070603;28;20045;-84
2022/08/24 04:09:22;;;;;;;33.63;31.02;;;18.20;99.90;;;;;;5069456;28;20548;-84
2022/08/24 04:11:48;;;;;;;30.60;28.25;;;18.10;99.90;;;;;;5068380;28;20119;-83
2022/08/24 04:14:16;;;;;;;34.83;32.22;;;18.20;99.90;;;;;;5052950;28;20127;-83
2022/08/24 04:16:43;;;;;;;33.22;30.63;;;18.20;99.90;;;;;;5052346;28;20033;-84
2022/08/24 04:19:09;;;;;;;33.58;30.98;;;18.20;99.90;;;;;;5069128;28;20055;-84
2022/08/24 04:21:36;;;;;;;44.75;41.35;;;18.10;99.90;;;;;;5068953;28;20052;-84
2022/08/24 04:24:05;;;;;;;45.83;42.33;;;18.10;99.90;;;;;;5068332;28;20044;-84
2022/08/24 04:26:31;;;;;;;46.00;42.40;;;18.20;99.90;;;;;;5069050;28;20059;-84
2022/08/24 04:28:57;;;;;;;44.42;40.92;;;18.10;99.90;;;;;;5069446;28;20037;-84
2022/08/24 04:31:23;;;;;;;42.70;38.92;;;18.20;99.90;;;;;;5062363;28;20044;-84
2022/08/24 04:33:50;;;;;;;42.92;35.33;;;18.20;99.90;;;;;;5049043;28;20033;-84
2022/08/24 04:36:19;;;;;;;200.18;35.85;;;18.10;99.90;;;;;;5040583;28;20171;-84
2022/08/24 04:38:45;;;;;;;30.20;27.50;;;18.00;99.90;;;;;;5032461;28;20055;-84
2022/08/24 04:41:12;;;;;;;27.95;25.88;;;17.90;99.90;;;;;;5048913;28;20045;-84
2022/08/24 04:43:39;;;;;;;32.72;30.23;;;17.90;99.90;;;;;;5057273;28;20041;-84
2022/08/24 04:46:06;;;;;;;31.52;29.08;;;17.80;99.90;;;;;;5032370;28;20044;-84
2022/08/24 04:48:32;;;;;;;31.48;29.08;;;17.90;99.90;;;;;;5054289;28;20040;-84
2022/08/24 04:51:06;;;;;;;27.98;25.77;;;17.80;99.90;;;;;;5050512;28;20084;-84
2022/08/24 04:53:32;;;;;;;26.38;24.30;;;17.90;99.90;;;;;;5032302;28;20044;-84
2022/08/24 04:55:58;;;;;;;27.95;25.75;;;17.80;99.90;;;;;;5064201;28;20115;-84
2022/08/24 04:58:26;;;;;;;26.63;24.63;;;17.80;99.90;;;;;;5068881;28;20041;-84
2022/08/24 05:00:51;;;;;;;21.85;20.05;;;17.70;99.90;;;;;;5068130;28;20068;-84
2022/08/24 05:03:17;;;;;;;20.85;19.15;;;17.70;99.90;;;;;;5069087;28;20513;-84
2022/08/24 05:05:45;;;;;;;23.45;21.65;;;17.60;99.90;;;;;;5068977;28;20442;-84
2022/08/24 05:08:12;;;;;;;24.73;22.83;;;17.60;99.90;;;;;;5068627;28;20131;-84
2022/08/24 05:10:39;;;;;;;25.42;23.50;;;17.50;99.90;;;;;;5051759;28;20048;-84
2022/08/24 05:13:06;;;;;;;25.80;23.90;;;17.60;99.90;;;;;;5069068;28;20417;-84
2022/08/24 05:15:33;;;;;;;23.83;21.90;;;17.50;99.90;;;;;;5068224;28;20493;-84
2022/08/24 05:17:59;;;;;;;24.17;22.27;;;17.50;99.90;;;;;;5068577;28;20517;-84
2022/08/24 05:20:25;;;;;;;23.90;22.00;;;17.50;99.90;;;;;;5051468;28;20046;-84
2022/08/24 05:22:52;;;;;;;18.00;16.58;;;17.50;99.90;;;;;;5055638;28;20044;-84
2022/08/24 05:25:18;;;;;;;17.95;16.35;;;17.50;99.90;;;;;;5032141;28;20083;-84
2022/08/24 05:27:43;;;;;;;18.83;17.27;;;17.50;99.90;;;;;;5058238;28;20072;-84
2022/08/24 05:30:10;;;;;;;17.98;16.48;;;17.50;99.90;;;;;;5068568;28;20080;-84
2022/08/24 05:32:37;;;;;;;17.77;16.38;;;17.50;99.90;;;;;;5051338;28;20035;-84
2022/08/24 05:35:03;;;;;;;17.63;16.33;;;17.50;99.90;;;;;;5060716;28;20040;-84
2022/08/24 05:37:30;;;;;;;18.30;16.58;;;17.50;99.90;;;;;;5051924;28;20048;-84
2022/08/24 05:39:56;;;;;;;24.08;22.17;;;17.40;99.90;;;;;;5072041;28;20063;-84
2022/08/24 05:42:22;;;;;;;28.27;26.17;;;17.50;99.90;;;;;;5065756;28;20394;-84
2022/08/24 05:44:47;;;;;;;33.58;31.27;;;17.50;99.90;;;;;;5071832;28;20076;-84
2022/08/24 05:47:13;;;;;;;34.97;32.47;;;17.50;99.90;;;;;;5071853;28;20036;-84
2022/08/24 05:49:39;;;;;;;34.58;32.08;;;17.60;99.90;;;;;;5071880;28;20043;-84
2022/08/24 05:52:04;;;;;;;27.45;25.45;;;17.60;99.90;;;;;;5072921;28;20039;-84
2022/08/24 05:54:30;;;;;;;26.58;24.58;;;17.60;99.90;;;;;;5071945;28;20071;-84
2022/08/24 05:57:00;;;;;;;24.33;22.48;;;17.60;99.90;;;;;;5072268;28;20494;-84
2022/08/24 05:59:26;;;;;;;25.55;23.65;;;17.60;99.90;;;;;;5070802;28;20501;-84
2022/08/24 06:01:52;;;;;;;27.05;25.05;;;17.70;99.90;;;;;;5071794;28;20066;-84
2022/08/24 06:04:18;;;;;;;31.05;28.83;;;17.70;99.90;;;;;;5071969;28;20041;-84
2022/08/24 06:06:44;;;;;;;32.85;30.45;;;17.80;99.90;;;;;;5071306;28;20049;-84
2022/08/24 06:09:10;;;;;;;32.92;30.63;;;17.90;99.90;;;;;;5055464;28;20044;-84
2022/08/24 06:11:38;;;;;;;38.50;35.67;;;17.90;99.90;;;;;;5054727;28;20032;-84
2022/08/24 06:14:11;;;;;;;40.38;37.53;;;18.00;99.90;;;;;;5054783;28;20040;-84
2022/08/24 06:16:39;;;;;;;51.88;47.78;;;18.10;99.90;;;;;;5071918;28;20304;-85
2022/08/24 06:19:05;;;;;;;41.45;38.35;;;18.20;99.90;;;;;;5061114;28;20440;-84
2022/08/24 06:21:32;;;;;;;36.08;33.38;;;18.30;99.90;;;;;;5051270;28;20486;-84
2022/08/24 06:23:58;;;;;;;37.67;34.88;;;18.30;99.90;;;;;;5035252;28;20037;-84
2022/08/24 06:29:10;;;;;;;36.58;33.83;;;18.50;99.90;;;;;;5071964;28;20524;-84
2022/08/24 06:31:42;;;;;;;39.83;36.92;;;18.50;99.90;;;;;;5068680;28;20119;-84
2022/08/24 06:34:11;;;;;;;48.72;45.15;;;18.60;99.90;;;;;;5034931;28;20048;-84
2022/08/24 06:36:37;;;;;;;50.60;46.67;;;18.70;99.90;;;;;;5051835;28;20405;-84
2022/08/24 06:39:03;;;;;;;43.58;40.17;;;18.80;99.90;;;;;;5050653;28;20048;-84
2022/08/24 06:41:29;;;;;;;55.22;50.88;;;18.90;99.90;;;;;;5072474;28;20037;-84
2022/08/24 06:43:55;;;;;;;55.33;50.80;;;19.00;99.90;;;;;;5051144;28;20113;-84
2022/08/24 06:46:21;;;;;;;64.80;59.30;;;19.10;99.90;;;;;;5034657;28;20044;-85
2022/08/24 06:48:48;;;;;;;66.07;60.58;;;19.20;99.90;;;;;;5034327;28;20037;-85
2022/08/24 06:51:16;;;;;;;70.53;64.57;;;19.30;99.90;;;;;;5042516;28;20037;-84
2022/08/24 06:53:43;;;;;;;71.32;65.25;;;19.50;99.90;;;;;;5034398;28;20386;-85
2022/08/24 06:56:09;;;;;;;71.18;65.25;;;19.60;99.90;;;;;;5059760;28;20037;-85
2022/08/24 06:58:35;;;;;;;79.28;72.00;;;19.60;99.90;;;;;;5070909;28;20036;-85
2022/08/24 07:01:13;;;;;;;74.10;67.85;;;19.80;99.90;;;;;;5053767;28;20036;-85
2022/08/24 07:03:39;;;;;;;74.57;68.28;;;19.90;99.90;;;;;;5028934;28;20059;-85
2022/08/24 07:06:06;;;;;;;74.70;68.53;;;20.00;99.90;;;;;;5068037;28;20040;-85
2022/08/24 07:08:32;;;;;;;75.75;69.35;;;20.10;99.90;;;;;;5070511;28;20066;-85
2022/08/24 07:10:58;;;;;;;75.30;69.00;;;20.20;99.90;;;;;;5070173;28;20055;-85
2022/08/24 07:13:24;;;;;;;74.10;67.68;;;20.30;99.90;;;;;;5070801;28;20444;-85
2022/08/24 07:15:51;;;;;;;68.60;62.88;;;20.40;99.90;;;;;;5053512;28;20497;-85
2022/08/24 07:18:18;;;;;;;68.28;62.85;;;20.40;99.90;;;;;;5071778;28;20037;-85
2022/08/24 07:20:45;;;;;;;67.80;62.33;;;20.60;99.90;;;;;;5069855;28;20048;-84
2022/08/24 07:23:13;;;;;;;66.28;60.75;;;20.60;99.90;;;;;;5070003;28;20059;-85
2022/08/24 07:25:40;;;;;;;67.50;61.80;;;20.70;99.90;;;;;;5070334;28;20076;-85
2022/08/24 07:28:06;;;;;;;62.65;57.67;;;20.90;99.90;;;;;;5069762;28;20048;-85
2022/08/24 07:30:32;;;;;;;63.85;58.55;;;21.00;99.90;;;;;;5071519;28;20037;-85
2022/08/24 07:32:58;;;;;;;63.17;57.88;;;21.10;99.90;;;;;;5052870;28;20494;-85
2022/08/24 07:35:28;;;;;;;60.58;55.53;;;21.20;99.90;;;;;;5039986;28;20098;-85
2022/08/24 07:37:55;;;;;;;59.45;54.65;;;21.30;99.90;;;;;;5050088;28;20494;-85
2022/08/24 07:40:21;;;;;;;57.00;52.20;;;21.40;99.90;;;;;;5068360;28;20040;-85
2022/08/24 07:42:49;;;;;;;55.13;50.63;;;21.50;99.90;;;;;;5069885;28;20047;-85
2022/08/24 07:45:15;;;;;;;52.90;48.58;;;21.60;99.90;;;;;;5045632;28;20037;-85
2022/08/24 07:47:41;;;;;;;47.97;44.10;;;21.70;99.90;;;;;;5049402;28;20056;-85
2022/08/24 07:50:07;;;;;;;47.60;43.65;;;21.80;99.90;;;;;;5042645;28;20037;-85
2022/08/24 07:52:33;;;;;;;44.15;40.45;;;21.90;99.90;;;;;;5052763;28;20044;-85
2022/08/24 07:54:58;;;;;;;38.83;35.33;;;22.00;99.90;;;;;;5061204;28;20036;-85
2022/08/24 07:57:24;;;;;;;39.47;35.78;;;22.10;99.90;;;;;;5038809;28;20041;-85
2022/08/24 07:59:50;;;;;;;41.28;37.67;;;22.20;99.90;;;;;;5048700;28;20529;-86
2022/08/24 08:02:15;;;;;;;40.53;37.08;;;22.30;99.90;;;;;;5065395;28;20029;-86
2022/08/24 08:04:42;;;;;;;45.03;41.25;;;22.40;99.90;;;;;;5053248;28;20045;-85
2022/08/24 08:07:08;;;;;;;48.40;44.45;;;22.60;99.90;;;;;;5052639;28;20051;-85
2022/08/24 08:09:36;;;;;;;44.47;40.65;;;22.60;99.90;;;;;;5069976;28;20068;-85
2022/08/24 08:12:02;;;;;;;33.38;30.38;;;22.70;99.90;;;;;;5069331;28;20028;-85
2022/08/24 08:14:27;;;;;;;41.67;38.05;;;22.80;99.90;;;;;;5052345;28;20556;-85
2022/08/24 08:16:53;;;;;;;40.22;36.47;;;22.90;99.90;;;;;;5068245;28;20039;-85
2022/08/24 08:19:19;;;;;;;30.10;27.27;;;22.90;99.90;;;;;;5048061;28;20028;-85
2022/08/24 08:24:32;;;;;;;25.90;23.35;;;23.20;99.90;;;;;;5054559;28;20044;-85
2022/08/24 08:26:58;;;;;;;27.35;24.92;;;23.20;99.90;;;;;;5052286;28;20033;-85
2022/08/24 08:29:24;;;;;;;28.35;25.55;;;23.30;99.90;;;;;;5068845;28;20055;-85
2022/08/24 08:31:51;;;;;;;25.98;23.45;;;23.40;99.90;;;;;;5068151;28;20115;-85
2022/08/24 08:34:17;;;;;;;26.45;23.95;;;23.50;99.90;;;;;;5052678;28;20036;-86
2022/08/24 08:36:43;;;;;;;24.70;22.25;;;23.60;99.90;;;;;;5052648;28;20050;-85
2022/08/24 08:39:11;;;;;;;25.83;23.33;;;23.70;99.90;;;;;;5068654;28;20116;-85
2022/08/24 08:42:15;;;;;;;26.73;24.08;;;23.80;99.90;;;;;;5052289;28;20107;-86
2022/08/24 08:45:09;;;;;;;25.98;23.40;;;23.90;99.90;;;;;;5052010;28;20068;-85
2022/08/24 08:47:38;;;;;;;24.40;22.00;;;24.00;99.90;;;;;;5052060;28;20490;-85
2022/08/24 08:50:20;;;;;;;26.83;24.33;;;24.00;99.90;;;;;;5052218;28;20127;-85
2022/08/24 08:53:12;;;;;;;;;;;24.10;99.90;;;;;;5052237;28;20044;-86
2022/08/24 08:55:44;;;;;;;25.70;23.10;;;24.10;99.90;;;;;;5063123;28;19959;-86
2022/08/24 08:58:25;;;;;;;22.92;20.80;;;24.20;99.90;;;;;;5048692;28;20049;-86
2022/08/24 09:01:02;;;;;;;22.80;20.60;;;24.40;99.90;;;;;;5032118;28;20045;-85
2022/08/24 09:03:49;;;;;;;24.90;22.33;;;24.40;99.90;;;;;;5040345;28;20049;-85
2022/08/24 09:06:57;;;;;;;23.92;21.55;;;24.50;99.90;;;;;;5048192;28;20041;-86
2022/08/24 09:09:52;;;;;;;24.02;21.73;;;24.60;99.90;;;;;;5057229;28;20041;-86
2022/08/24 09:12:46;;;;;;;21.45;19.00;;;24.70;99.90;;;;;;5052189;28;20037;-86
2022/08/24 09:15:52;;;;;;;18.38;14.80;;;24.80;99.90;;;;;;5066806;28;20097;-86
2022/08/24 09:18:46;;;;;;;17.73;15.50;;;25.00;99.90;;;;;;5073248;28;20037;-86
2022/08/24 09:21:36;;;;;;;19.30;15.95;;;25.00;99.90;;;;;;5071217;28;20563;-86
2022/08/24 09:24:13;;;;;;;16.27;14.02;;;25.10;99.90;;;;;;5072618;28;20571;-86
2022/08/24 09:26:55;;;;;;;17.10;14.68;;;25.30;99.90;;;;;;5072275;28;20063;-86
2022/08/24 09:29:46;;;;;;;18.77;15.02;;;25.40;99.90;;;;;;5039928;28;20064;-86
2022/08/24 09:32:34;;;;;;;16.30;13.18;;;25.50;99.90;;;;;;5051488;28;20033;-86
2022/08/24 09:35:13;;;;;;;18.02;14.93;;;25.50;99.90;;;;;;5042873;28;20442;-86
2022/08/24 09:38:16;;;;;;;19.42;13.75;;;25.60;99.90;;;;;;5035813;28;20032;-86
2022/08/24 09:40:54;;;;;;;14.63;12.93;;;25.70;99.90;;;;;;5043804;28;20045;-86
2022/08/24 09:43:48;;;;;;;14.32;10.68;;;25.70;99.90;;;;;;5063496;28;20079;-86
2022/08/24 09:46:34;;;;;;;14.25;10.90;;;25.80;99.90;;;;;;5047731;28;20033;-86
2022/08/24 09:49:03;;;;;;;13.65;9.48;;;25.90;99.90;;;;;;5052345;28;20091;-86
2022/08/24 09:51:48;;;;;;;14.38;8.23;;;26.00;99.90;;;;;;5052881;28;20045;-86
2022/08/24 09:54:29;;;;;;;16.83;10.73;;;26.10;99.90;;;;;;5039992;28;20403;-86
2022/08/24 09:57:27;;;;;;;15.15;10.98;;;26.10;99.90;;;;;;5035366;28;20132;-86
2022/08/24 10:00:42;;;;;;;18.20;11.07;;;26.20;99.90;;;;;;5068373;28;20051;-86
2022/08/24 10:03:26;;;;;;;13.23;9.68;;;26.30;99.90;;;;;;5035025;28;20075;-85
2022/08/24 10:06:14;;;;;;;12.85;9.05;;;26.40;99.90;;;;;;5048232;28;20143;-86
2022/08/24 10:08:58;;;;;;;13.45;9.68;;;26.50;99.90;;;;;;5035511;28;20036;-86
2022/08/24 10:11:49;;;;;;;14.80;8.77;;;26.60;99.90;;;;;;5043258;28;20041;-85
2022/08/24 10:14:30;;;;;;;16.63;9.10;;;26.60;99.90;;;;;;5052636;28;20040;-86
2022/08/24 10:17:25;;;;;;;12.20;9.40;;;26.70;99.90;;;;;;5055073;28;20048;-86
2022/08/24 10:20:06;;;;;;;12.85;8.45;;;26.80;99.90;;;;;;5035749;28;20658;-86
2022/08/24 10:22:34;;;;;;;11.98;8.57;;;26.90;99.90;;;;;;5053085;28;20041;-86
2022/08/24 10:25:18;;;;;;;13.43;8.23;;;26.90;99.90;;;;;;5070740;28;20131;-86
2022/08/24 10:28:11;;;;;;;13.23;8.63;;;27.00;99.90;;;;;;5071518;28;20041;-86
2022/08/24 10:30:44;;;;;;;13.15;7.45;;;27.10;99.90;;;;;;5070580;28;20037;-86
2022/08/24 10:33:15;;;;;;;13.95;7.70;;;27.20;99.90;;;;;;5054977;28;20036;-86
2022/08/24 10:36:06;;;;;;;14.68;7.82;;;27.30;99.90;;;;;;5071327;28;20032;-86
2022/08/24 10:41:45;;;;;;;9.63;5.03;;;27.40;99.90;;;;;;5066356;28;20045;-86
2022/08/24 10:44:42;;;;;;;11.90;5.38;;;27.50;98.80;;;;;;5051417;28;20099;-86
2022/08/24 10:47:27;;;;;;;10.10;4.60;;;27.50;99.60;;;;;;5059685;28;20036;-86
2022/08/24 10:50:12;;;;;;;11.05;6.88;;;27.60;99.90;;;;;;5051174;28;20106;-86
2022/08/24 10:52:55;;;;;;;13.70;7.00;;;27.70;99.90;;;;;;5042311;28;20044;-86
2022/08/24 10:55:26;;;;;;;10.68;6.47;;;27.70;99.90;;;;;;5034418;28;20041;-86
2022/08/24 10:58:09;;;;;;;11.30;5.15;;;27.90;99.90;;;;;;5050920;28;20048;-86
2022/08/24 11:00:35;;;;;;;10.52;4.60;;;28.00;99.90;;;;;;5043372;28;20119;-86
2022/08/24 11:03:17;;;;;;;9.27;4.95;;;28.00;99.90;;;;;;5051136;28;20103;-86
2022/08/24 11:05:48;;;;;;;9.45;4.55;;;28.20;99.00;;;;;;5058607;28;20079;-86
2022/08/24 11:08:25;;;;;;;8.50;4.65;;;28.20;96.40;;;;;;5033774;28;20091;-86
2022/08/24 11:11:11;;;;;;;7.97;4.07;;;28.30;95.70;;;;;;5050484;28;20033;-87
2022/08/24 11:14:14;;;;;;;8.98;4.25;;;28.40;96.50;;;;;;5033820;28;20486;-86
2022/08/24 11:16:43;;;;;;;10.48;4.68;;;28.40;94.30;;;;;;5056471;28;20052;-86
2022/08/24 11:19:28;;;;;;;12.35;4.57;;;28.50;93.80;;;;;;5053894;28;20036;-86
2022/08/24 11:21:56;;;;;;;8.55;4.50;;;28.60;94.60;;;;;;5052490;28;20052;-86
2022/08/24 11:24:25;;;;;;;9.15;4.50;;;28.60;92.10;;;;;;5062726;28;20044;-86
2022/08/24 11:27:17;;;;;;;8.23;3.58;;;28.70;93.00;;;;;;5070375;28;20051;-87
2022/08/24 11:29:48;;;;;;;8.98;4.30;;;28.90;93.60;;;;;;5061293;28;20045;-86
2022/08/24 11:32:45;;;;;;;9.80;4.97;;;29.00;92.50;;;;;;5033646;28;20049;-87
2022/08/24 11:35:18;;;;;;;10.07;5.07;;;29.10;92.00;;;;;;5025757;28;21077;-86
2022/08/24 11:37:45;;;;;;;8.77;4.95;;;29.10;90.30;;;;;;5036119;28;20630;-86
2022/08/24 11:40:12;;;;;;;8.10;3.83;;;29.20;88.90;;;;;;5035133;28;20045;-86
2022/08/24 11:43:06;;;;;;;8.05;3.88;;;29.30;87.00;;;;;;5034083;28;20044;-86
2022/08/24 11:46:01;;;;;;;7.88;3.65;;;29.40;85.20;;;;;;5051487;28;20063;-86
2022/08/24 11:48:44;;;;;;;8.95;2.80;;;29.50;84.40;;;;;;5068669;28;20044;-86
2022/08/24 11:51:14;;;;;;;7.47;3.03;;;29.60;85.20;;;;;;5035105;28;20044;-86
2022/08/24 11:54:03;;;;;;;8.20;3.08;;;29.70;82.30;;;;;;5043280;28;20556;-87
2022/08/24 11:56:34;;;;;;;8.55;3.00;;;29.80;83.70;;;;;;5048341;28;20037;-86
2022/08/24 11:59:44;;;;;;;8.18;3.05;;;29.90;79.30;;;;;;5046901;28;20135;-87
2022/08/24 12:02:34;;;;;;;6.35;3.08;;;29.90;78.90;;;;;;5068172;28;20116;-87
2022/08/24 12:05:10;;;;;;;7.40;2.53;;;29.90;76.50;;;;;;5051148;28;20076;-86
2022/08/24 12:07:36;;;;;;;8.13;2.70;;;30.00;74.40;;;;;;5034050;28;20489;-86
2022/08/24 12:10:50;;;;;;;8.13;2.60;;;30.10;74.60;;;;;;5051612;28;20079;-86
2022/08/24 12:13:25;;;;;;;7.38;2.22;;;30.20;74.90;;;;;;5040521;28;20086;-86
2022/08/24 12:16:07;;;;;;;6.88;2.50;;;30.20;73.50;;;;;;5052892;28;20041;-86
2022/08/24 12:19:11;;;;;;;6.50;2.40;;;30.40;71.40;;;;;;5051352;28;20032;-86
2022/08/24 12:21:41;;;;;;;5.40;1.80;;;30.50;71.70;;;;;;5046469;28;20044;-86
2022/08/24 12:24:12;;;;;;;5.28;1.50;;;30.70;72.30;;;;;;5051075;28;20036;-86
2022/08/24 12:26:45;;;;;;;4.80;0.80;;;30.90;70.30;;;;;;5051951;28;20124;-87
2022/08/24 12:29:46;;;;;;;3.20;1.20;;;31.10;64.60;;;;;;5069477;28;20047;-87
2022/08/24 12:32:24;;;;;;;3.00;1.20;;;31.20;61.90;;;;;;5042879;28;20056;-87
2022/08/24 12:35:01;;;;;;;8.90;1.60;;;31.30;62.50;;;;;;5039614;28;20553;-86
2022/08/24 12:37:35;;;;;;;4.65;1.30;;;31.50;62.30;;;;;;5060754;28;20036;-86
2022/08/24 12:40:12;;;;;;;4.10;1.30;;;31.60;63.80;;;;;;5043051;28;20048;-86
2022/08/24 12:42:46;;;;;;;4.40;1.20;;;31.90;61.80;;;;;;5048652;28;20465;-86
2022/08/24 12:45:15;;;;;;;5.15;1.30;;;32.00;60.70;;;;;;5032334;28;20043;-86
2022/08/24 12:48:07;;;;;;;3.13;1.20;;;32.00;59.20;;;;;;5069830;28;20574;-87
2022/08/24 12:51:05;;;;;;;4.50;1.30;;;32.10;58.50;;;;;;5052486;28;20114;-86
2022/08/24 12:53:52;;;;;;;3.35;1.20;;;32.20;59.50;;;;;;5051267;28;20766;-87
2022/08/24 12:56:56;;;;;;;5.20;1.52;;;32.30;58.60;;;;;;5068856;28;20489;-86
2022/08/24 12:59:31;;;;;;;10.05;2.00;;;32.50;59.00;;;;;;5048633;28;20060;-86
2022/08/24 13:02:23;;;;;;;4.18;1.48;;;32.50;58.10;;;;;;5059211;28;20044;-86
2022/08/24 13:04:49;;;;;;;4.28;1.35;;;32.50;57.50;;;;;;5069550;28;20086;-87
2022/08/24 13:07:18;;;;;;;3.60;1.35;;;32.50;57.50;;;;;;5069019;28;20037;-86